createdAt,value
2018-12-08T00:00:22.852Z,1010.33
2018-12-08T00:01:22.843Z,1010.28
2018-12-08T00:02:22.834Z,1010.31
2018-12-08T00:03:22.825Z,1010.32
2018-12-08T00:04:22.817Z,1010.31
2018-12-08T00:05:22.805Z,1010.36
2018-12-08T00:06:22.795Z,1010.35
2018-12-08T00:07:22.786Z,1010.42
2018-12-08T00:08:22.777Z,1010.3
2018-12-08T00:09:22.768Z,1010.42
2018-12-08T00:10:22.757Z,1010.35
2018-12-08T00:11:22.748Z,1010.5
2018-12-08T00:12:22.738Z,1010.46
2018-12-08T00:13:22.729Z,1010.49
2018-12-08T00:14:22.720Z,1010.53
2018-12-08T00:15:22.710Z,1010.49
2018-12-08T00:16:22.700Z,1010.44
2018-12-08T00:17:22.696Z,1010.57
2018-12-08T00:18:22.682Z,1010.49
2018-12-08T00:19:22.671Z,1010.65
2018-12-08T00:20:22.662Z,1010.62
2018-12-08T00:21:22.652Z,1010.63
2018-12-08T00:22:22.645Z,1010.66
2018-12-08T00:23:22.634Z,1010.6
2018-12-08T00:24:22.625Z,1010.67
2018-12-08T00:25:22.619Z,1010.59
2018-12-08T00:26:22.606Z,1010.65
2018-12-08T00:27:22.599Z,1010.73
2018-12-08T00:28:22.586Z,1010.72
2018-12-08T00:29:22.576Z,1010.77
2018-12-08T00:30:22.568Z,1010.8
2018-12-08T00:31:22.558Z,1010.8
2018-12-08T00:32:22.549Z,1010.93
2018-12-08T00:33:22.539Z,1010.99
2018-12-08T00:34:22.529Z,1011.07
2018-12-08T00:35:22.520Z,1011.03
2018-12-08T00:36:22.511Z,1011.06
2018-12-08T00:37:22.502Z,1011.07
2018-12-08T00:38:22.491Z,1011.34
2018-12-08T00:39:22.481Z,1011.43
2018-12-08T00:40:22.472Z,1011.42
2018-12-08T00:41:22.463Z,1011.42
2018-12-08T00:42:22.461Z,1011.59
2018-12-08T00:43:22.449Z,1011.64
2018-12-08T00:44:22.437Z,1011.85
2018-12-08T00:45:22.427Z,1011.88
2018-12-08T00:46:22.416Z,1012.01
2018-12-08T00:47:22.407Z,1011.96
2018-12-08T00:48:22.397Z,1012.18
2018-12-08T00:49:22.388Z,1012.22
2018-12-08T00:50:22.377Z,1012.28
2018-12-08T00:51:22.369Z,1012.58
2018-12-08T00:52:22.358Z,1012.48
2018-12-08T00:53:22.348Z,1012.66
2018-12-08T00:54:22.340Z,1012.67
2018-12-08T00:55:22.330Z,1012.84
2018-12-08T00:56:22.320Z,1012.77
2018-12-08T00:57:22.310Z,1012.9
2018-12-08T00:58:22.299Z,1012.82
2018-12-08T00:59:22.290Z,1012.98
2018-12-08T01:00:22.280Z,1013
2018-12-08T01:01:22.270Z,1013.13
2018-12-08T01:02:22.259Z,1013.11
2018-12-08T01:03:22.250Z,1013.21
2018-12-08T01:04:22.239Z,1013.18
2018-12-08T01:05:22.229Z,1013.26
2018-12-08T01:06:22.220Z,1013.28
2018-12-08T01:07:22.211Z,1013.3
2018-12-08T01:08:22.200Z,1013.34
2018-12-08T01:09:22.190Z,1013.47
2018-12-08T01:10:22.177Z,1013.6
2018-12-08T01:11:22.167Z,1013.63
2018-12-08T01:12:22.162Z,1013.74
2018-12-08T01:13:22.148Z,1013.74
2018-12-08T01:14:22.138Z,1013.67
2018-12-08T01:15:22.126Z,1013.72
2018-12-08T01:16:22.118Z,1013.82
2018-12-08T01:17:22.107Z,1013.84
2018-12-08T01:18:22.096Z,1013.87
2018-12-08T01:19:22.087Z,1013.76
2018-12-08T01:20:22.076Z,1013.75
2018-12-08T01:21:22.064Z,1013.78
2018-12-08T01:22:22.054Z,1013.77
2018-12-08T01:23:22.044Z,1013.85
2018-12-08T01:24:22.035Z,1013.85
2018-12-08T01:25:22.023Z,1013.87
2018-12-08T01:26:22.015Z,1013.92
2018-12-08T01:27:22.001Z,1013.86
2018-12-08T01:28:21.991Z,1013.95
2018-12-08T01:29:21.980Z,1013.9
2018-12-08T01:30:21.970Z,1013.95
2018-12-08T01:31:21.960Z,1013.86
2018-12-08T01:32:21.951Z,1013.84
2018-12-08T01:33:21.939Z,1013.93
2018-12-08T01:34:21.927Z,1013.88
2018-12-08T01:35:21.921Z,1013.93
2018-12-08T01:36:21.910Z,1013.95
2018-12-08T01:37:21.901Z,1013.99
2018-12-08T01:38:21.890Z,1014.06
2018-12-08T01:39:21.883Z,1014.06
2018-12-08T01:40:21.869Z,1014.06
2018-12-08T01:41:21.976Z,1014.13
2018-12-08T01:42:21.848Z,1014.09
2018-12-08T01:43:21.837Z,1014.13
2018-12-08T01:44:21.826Z,1014.1
2018-12-08T01:45:21.815Z,1014.11
2018-12-08T01:46:21.804Z,1014.04
2018-12-08T01:47:21.792Z,1013.92
2018-12-08T01:48:21.784Z,1013.96
2018-12-08T01:49:21.772Z,1013.96
2018-12-08T01:50:21.762Z,1014
2018-12-08T01:51:21.750Z,1014
2018-12-08T01:52:21.751Z,1014.02
2018-12-08T01:53:21.729Z,1014.1
2018-12-08T01:54:21.721Z,1014.14
2018-12-08T01:55:21.709Z,1014.26
2018-12-08T01:56:21.699Z,1014.2
2018-12-08T01:57:21.688Z,1014.32
2018-12-08T01:58:21.675Z,1014.32
2018-12-08T01:59:21.666Z,1014.28
2018-12-08T02:00:21.656Z,1014.4
2018-12-08T02:01:21.648Z,1014.45
2018-12-08T02:02:21.634Z,1014.45
2018-12-08T02:03:21.623Z,1014.43
2018-12-08T02:04:21.613Z,1014.55
2018-12-08T02:05:21.602Z,1014.58
2018-12-08T02:06:21.591Z,1014.63
2018-12-08T02:07:21.580Z,1014.66
2018-12-08T02:08:21.662Z,1014.79
2018-12-08T02:09:21.609Z,1014.8
2018-12-08T02:10:21.549Z,1014.8
2018-12-08T02:11:24.976Z,1014.8
2018-12-08T02:12:21.527Z,1014.83
2018-12-08T02:13:21.517Z,1014.9
2018-12-08T02:14:21.504Z,1014.91
2018-12-08T02:15:21.493Z,1014.94
2018-12-08T02:16:21.483Z,1014.9
2018-12-08T02:17:21.472Z,1014.83
2018-12-08T02:18:21.461Z,1014.76
2018-12-08T02:19:21.449Z,1014.77
2018-12-08T02:20:21.437Z,1014.76
2018-12-08T02:21:21.428Z,1014.75
2018-12-08T02:22:21.418Z,1014.66
2018-12-08T02:23:21.407Z,1014.7
2018-12-08T02:24:21.396Z,1014.74
2018-12-08T02:25:21.387Z,1014.74
2018-12-08T02:26:21.372Z,1014.72
2018-12-08T02:27:21.361Z,1014.78
2018-12-08T02:28:21.352Z,1014.8
2018-12-08T02:29:21.341Z,1014.74
2018-12-08T02:30:21.332Z,1014.75
2018-12-08T02:31:21.317Z,1014.68
2018-12-08T02:32:21.306Z,1014.69
2018-12-08T02:33:21.302Z,1014.73
2018-12-08T02:34:21.286Z,1014.71
2018-12-08T02:35:21.277Z,1014.77
2018-12-08T02:36:21.263Z,1014.86
2018-12-08T02:37:21.252Z,1014.82
2018-12-08T02:38:21.241Z,1014.9
2018-12-08T02:39:21.229Z,1014.95
2018-12-08T02:40:21.218Z,1014.99
2018-12-08T02:41:21.208Z,1015.14
2018-12-08T02:42:21.195Z,1015.1
2018-12-08T02:43:21.184Z,1015.15
2018-12-08T02:44:21.173Z,1015.1
2018-12-08T02:45:21.161Z,1015.15
2018-12-08T02:46:21.152Z,1015.19
2018-12-08T02:47:21.143Z,1015.17
2018-12-08T02:48:21.130Z,1015.23
2018-12-08T02:49:21.118Z,1015.22
2018-12-08T02:50:21.105Z,1015.22
2018-12-08T02:51:21.094Z,1015.21
2018-12-08T02:52:21.085Z,1015.21
2018-12-08T02:53:21.070Z,1015.15
2018-12-08T02:54:21.061Z,1015.13
2018-12-08T02:55:21.049Z,1015.1
2018-12-08T02:56:21.040Z,1015.1
2018-12-08T02:57:21.026Z,1015.11
2018-12-08T02:58:21.016Z,1015.08
2018-12-08T02:59:21.005Z,1015.05
2018-12-08T03:00:20.993Z,1015.11
2018-12-08T03:01:20.984Z,1015.05
2018-12-08T03:02:20.970Z,1015.09
2018-12-08T03:03:20.958Z,1015.05
2018-12-08T03:04:20.946Z,1015.01
2018-12-08T03:05:20.936Z,1014.96
2018-12-08T03:06:20.925Z,1014.99
2018-12-08T03:07:20.913Z,1015.05
2018-12-08T03:08:20.901Z,1015.12
2018-12-08T03:09:20.890Z,1015.08
2018-12-08T03:10:20.880Z,1015.19
2018-12-08T03:11:20.868Z,1015.21
2018-12-08T03:12:20.857Z,1015.27
2018-12-08T03:13:20.846Z,1015.31
2018-12-08T03:14:20.834Z,1015.32
2018-12-08T03:15:20.822Z,1015.31
2018-12-08T03:16:20.811Z,1015.42
2018-12-08T03:17:20.800Z,1015.47
2018-12-08T03:18:20.791Z,1015.43
2018-12-08T03:19:20.778Z,1015.45
2018-12-08T03:20:20.768Z,1015.46
2018-12-08T03:21:20.757Z,1015.45
2018-12-08T03:22:20.745Z,1015.53
2018-12-08T03:23:20.734Z,1015.57
2018-12-08T03:24:20.724Z,1015.5
2018-12-08T03:25:20.712Z,1015.61
2018-12-08T03:26:20.699Z,1015.63
2018-12-08T03:27:20.689Z,1015.65
2018-12-08T03:28:20.678Z,1015.78
2018-12-08T03:29:20.666Z,1015.87
2018-12-08T03:30:20.809Z,1015.83
2018-12-08T03:31:20.645Z,1015.9
2018-12-08T03:32:20.635Z,1015.93
2018-12-08T03:33:20.621Z,1015.91
2018-12-08T03:34:20.611Z,1015.87
2018-12-08T03:35:20.600Z,1015.88
2018-12-08T03:36:20.590Z,1015.92
2018-12-08T03:37:20.578Z,1015.92
2018-12-08T03:38:20.565Z,1016.04
2018-12-08T03:39:20.557Z,1016.13
2018-12-08T03:40:20.543Z,1016.18
2018-12-08T03:41:20.531Z,1016.21
2018-12-08T03:42:20.521Z,1016.27
2018-12-08T03:43:20.510Z,1016.25
2018-12-08T03:44:20.498Z,1016.29
2018-12-08T03:45:20.490Z,1016.31
2018-12-08T03:46:20.475Z,1016.39
2018-12-08T03:47:20.466Z,1016.43
2018-12-08T03:48:20.452Z,1016.35
2018-12-08T03:49:20.441Z,1016.38
2018-12-08T03:50:20.431Z,1016.4
2018-12-08T03:51:20.418Z,1016.43
2018-12-08T03:52:20.407Z,1016.42
2018-12-08T03:53:20.398Z,1016.46
2018-12-08T03:54:20.383Z,1016.49
2018-12-08T03:55:20.372Z,1016.52
2018-12-08T03:56:20.360Z,1016.6
2018-12-08T03:57:20.350Z,1016.68
2018-12-08T03:58:20.337Z,1016.7
2018-12-08T03:59:20.326Z,1016.79
2018-12-08T04:00:20.314Z,1016.83
2018-12-08T04:01:20.304Z,1016.84
2018-12-08T04:02:20.292Z,1016.94
2018-12-08T04:03:20.280Z,1017
2018-12-08T04:04:20.268Z,1017.05
2018-12-08T04:05:20.257Z,1017.05
2018-12-08T04:06:20.244Z,1017.14
2018-12-08T04:07:20.233Z,1017.05
2018-12-08T04:08:20.222Z,1017.1
2018-12-08T04:09:20.215Z,1017.07
2018-12-08T04:10:20.198Z,1017.04
2018-12-08T04:11:20.185Z,1016.93
2018-12-08T04:12:20.174Z,1017.01
2018-12-08T04:13:20.160Z,1016.96
2018-12-08T04:14:20.149Z,1016.95
2018-12-08T04:15:20.137Z,1016.91
2018-12-08T04:16:20.135Z,1016.92
2018-12-08T04:17:20.113Z,1016.92
2018-12-08T04:18:20.100Z,1017
2018-12-08T04:19:20.090Z,1017
2018-12-08T04:20:20.077Z,1017.08
2018-12-08T04:21:20.065Z,1017.11
2018-12-08T04:22:20.053Z,1017.12
2018-12-08T04:23:20.041Z,1017.12
2018-12-08T04:24:20.029Z,1017.18
2018-12-08T04:25:20.024Z,1017.2
2018-12-08T04:26:20.005Z,1017.26
2018-12-08T04:27:19.993Z,1017.16
2018-12-08T04:28:19.982Z,1017.18
2018-12-08T04:29:19.974Z,1017.13
2018-12-08T04:30:19.957Z,1017.16
2018-12-08T04:31:19.944Z,1017.22
2018-12-08T04:32:19.932Z,1017.08
2018-12-08T04:33:19.922Z,1017.07
2018-12-08T04:34:19.908Z,1016.98
2018-12-08T04:35:19.896Z,1016.96
2018-12-08T04:36:19.883Z,1017
2018-12-08T04:37:19.873Z,1016.98
2018-12-08T04:38:19.861Z,1016.99
2018-12-08T04:39:19.847Z,1016.94
2018-12-08T04:40:19.836Z,1017.04
2018-12-08T04:41:19.824Z,1017.03
2018-12-08T04:42:19.810Z,1017.04
2018-12-08T04:43:19.799Z,1017.08
2018-12-08T04:44:19.787Z,1017.09
2018-12-08T04:45:19.776Z,1017.17
2018-12-08T04:46:19.764Z,1017.2
2018-12-08T04:47:19.753Z,1017.25
2018-12-08T04:48:19.740Z,1017.25
2018-12-08T04:49:19.726Z,1017.29
2018-12-08T04:50:19.715Z,1017.32
2018-12-08T04:51:19.703Z,1017.39
2018-12-08T04:52:19.691Z,1017.42
2018-12-08T04:53:19.681Z,1017.37
2018-12-08T04:54:19.667Z,1017.42
2018-12-08T04:55:19.654Z,1017.45
2018-12-08T04:56:19.646Z,1017.42
2018-12-08T04:57:19.631Z,1017.53
2018-12-08T04:58:19.620Z,1017.56
2018-12-08T04:59:19.608Z,1017.6
2018-12-08T05:00:19.597Z,1017.6
2018-12-08T05:01:19.584Z,1017.65
2018-12-08T05:02:19.573Z,1017.63
2018-12-08T05:03:19.561Z,1017.59
2018-12-08T05:04:19.548Z,1017.59
2018-12-08T05:05:19.545Z,1017.59
2018-12-08T05:06:19.525Z,1017.62
2018-12-08T05:07:19.513Z,1017.59
2018-12-08T05:08:19.500Z,1017.57
2018-12-08T05:09:19.489Z,1017.61
2018-12-08T05:10:19.478Z,1017.6
2018-12-08T05:11:19.466Z,1017.64
2018-12-08T05:12:19.454Z,1017.73
2018-12-08T05:13:19.444Z,1017.8
2018-12-08T05:14:19.431Z,1017.87
2018-12-08T05:15:19.419Z,1017.96
2018-12-08T05:16:19.408Z,1018.04
2018-12-08T05:17:19.395Z,1018.11
2018-12-08T05:18:19.455Z,1018.17
2018-12-08T05:19:19.374Z,1018.16
2018-12-08T05:20:19.359Z,1018.14
2018-12-08T05:21:19.392Z,1018.12
2018-12-08T05:22:19.338Z,1018.15
2018-12-08T05:23:19.327Z,1018.18
2018-12-08T05:24:19.314Z,1018.23
2018-12-08T05:25:19.302Z,1018.17
2018-12-08T05:26:19.291Z,1018.11
2018-12-08T05:27:19.277Z,1018.04
2018-12-08T05:28:19.266Z,1018.03
2018-12-08T05:29:19.254Z,1018.03
2018-12-08T05:30:19.242Z,1017.99
2018-12-08T05:31:19.231Z,1017.99
2018-12-08T05:32:19.219Z,1017.92
2018-12-08T05:33:19.207Z,1017.88
2018-12-08T05:34:19.301Z,1017.8
2018-12-08T05:35:19.184Z,1017.77
2018-12-08T05:36:19.177Z,1017.78
2018-12-08T05:37:19.160Z,1017.77
2018-12-08T05:38:19.148Z,1017.8
2018-12-08T05:39:19.135Z,1017.79
2018-12-08T05:40:19.125Z,1017.72
2018-12-08T05:41:19.112Z,1017.73
2018-12-08T05:42:19.101Z,1017.78
2018-12-08T05:43:19.090Z,1017.76
2018-12-08T05:44:19.077Z,1017.78
2018-12-08T05:45:19.065Z,1017.81
2018-12-08T05:46:19.054Z,1017.85
2018-12-08T05:47:19.042Z,1017.79
2018-12-08T05:48:19.030Z,1017.83
2018-12-08T05:49:19.095Z,1017.85
2018-12-08T05:50:19.006Z,1017.88
2018-12-08T05:51:18.995Z,1017.85
2018-12-08T05:52:18.983Z,1017.81
2018-12-08T05:53:18.972Z,1017.75
2018-12-08T05:54:18.960Z,1017.77
2018-12-08T05:55:18.948Z,1017.88
2018-12-08T05:56:18.941Z,1017.89
2018-12-08T05:57:18.924Z,1017.86
2018-12-08T05:58:18.914Z,1017.93
2018-12-08T05:59:18.901Z,1017.86
2018-12-08T06:00:18.889Z,1017.83
2018-12-08T06:01:18.876Z,1017.87
2018-12-08T06:02:18.866Z,1017.89
2018-12-08T06:03:18.856Z,1017.82
2018-12-08T06:04:18.843Z,1017.79
2018-12-08T06:05:18.831Z,1017.84
2018-12-08T06:06:18.818Z,1017.83
2018-12-08T06:07:18.807Z,1017.82
2018-12-08T06:08:18.796Z,1017.83
2018-12-08T06:09:18.787Z,1017.73
2018-12-08T06:10:18.770Z,1017.65
2018-12-08T06:11:18.759Z,1017.65
2018-12-08T06:12:18.747Z,1017.7
2018-12-08T06:13:18.736Z,1017.73
2018-12-08T06:14:18.731Z,1017.76
2018-12-08T06:15:18.713Z,1017.75
2018-12-08T06:16:18.702Z,1017.73
2018-12-08T06:17:18.690Z,1017.73
2018-12-08T06:18:18.678Z,1017.73
2018-12-08T06:19:18.667Z,1017.66
2018-12-08T06:20:18.655Z,1017.68
2018-12-08T06:21:18.646Z,1017.61
2018-12-08T06:22:18.631Z,1017.58
2018-12-08T06:23:18.620Z,1017.65
2018-12-08T06:24:18.609Z,1017.68
2018-12-08T06:25:18.598Z,1017.73
2018-12-08T06:26:18.585Z,1017.68
2018-12-08T06:27:18.574Z,1017.69
2018-12-08T06:28:18.562Z,1017.66
2018-12-08T06:29:18.550Z,1017.7
2018-12-08T06:30:18.538Z,1017.71
2018-12-08T06:31:18.528Z,1017.77
2018-12-08T06:32:18.515Z,1017.73
2018-12-08T06:33:18.504Z,1017.72
2018-12-08T06:34:18.491Z,1017.76
2018-12-08T06:35:18.481Z,1017.73
2018-12-08T06:36:18.469Z,1017.82
2018-12-08T06:37:18.456Z,1017.82
2018-12-08T06:38:18.446Z,1017.87
2018-12-08T06:39:18.434Z,1017.9
2018-12-08T06:40:18.422Z,1017.96
2018-12-08T06:41:18.411Z,1018.04
2018-12-08T06:42:18.401Z,1018.1
2018-12-08T06:43:18.389Z,1018.16
2018-12-08T06:44:18.376Z,1018.2
2018-12-08T06:45:18.364Z,1018.3
2018-12-08T06:46:18.354Z,1018.34
2018-12-08T06:47:18.340Z,1018.38
2018-12-08T06:48:18.329Z,1018.36
2018-12-08T06:49:18.315Z,1018.36
2018-12-08T06:50:18.304Z,1018.34
2018-12-08T06:51:18.292Z,1018.37
2018-12-08T06:52:18.281Z,1018.37
2018-12-08T06:53:18.268Z,1018.38
2018-12-08T06:54:18.255Z,1018.4
2018-12-08T06:55:18.244Z,1018.4
2018-12-08T06:56:18.231Z,1018.41
2018-12-08T06:57:18.221Z,1018.36
2018-12-08T06:58:18.207Z,1018.38
2018-12-08T06:59:18.196Z,1018.44
2018-12-08T07:00:18.184Z,1018.51
2018-12-08T07:01:18.170Z,1018.67
2018-12-08T07:02:18.159Z,1018.7
2018-12-08T07:03:18.148Z,1018.77
2018-12-08T07:04:18.135Z,1018.83
2018-12-08T07:05:18.121Z,1018.83
2018-12-08T07:06:18.111Z,1018.91
2018-12-08T07:07:18.096Z,1018.87
2018-12-08T07:08:18.085Z,1018.89
2018-12-08T07:09:18.074Z,1018.85
2018-12-08T07:10:18.062Z,1018.81
2018-12-08T07:11:18.049Z,1018.83
2018-12-08T07:12:18.035Z,1018.82
2018-12-08T07:13:18.023Z,1018.75
2018-12-08T07:14:18.009Z,1018.71
2018-12-08T07:15:17.997Z,1018.7
2018-12-08T07:16:17.984Z,1018.69
2018-12-08T07:17:17.972Z,1018.6
2018-12-08T07:18:17.960Z,1018.59
2018-12-08T07:19:17.946Z,1018.57
2018-12-08T07:20:17.934Z,1018.56
2018-12-08T07:21:17.923Z,1018.49
2018-12-08T07:22:17.908Z,1018.5
2018-12-08T07:23:17.895Z,1018.44
2018-12-08T07:24:17.883Z,1018.45
2018-12-08T07:25:17.870Z,1018.39
2018-12-08T07:26:17.857Z,1018.32
2018-12-08T07:27:17.844Z,1018.33
2018-12-08T07:28:17.832Z,1018.4
2018-12-08T07:29:17.821Z,1018.38
2018-12-08T07:30:17.806Z,1018.39
2018-12-08T07:31:17.797Z,1018.34
2018-12-08T07:32:17.789Z,1018.32
2018-12-08T07:33:17.770Z,1018.27
2018-12-08T07:34:17.756Z,1018.32
2018-12-08T07:35:17.743Z,1018.26
2018-12-08T07:36:17.732Z,1018.21
2018-12-08T07:37:17.720Z,1018.14
2018-12-08T07:38:17.708Z,1018.17
2018-12-08T07:39:17.693Z,1018.1
2018-12-08T07:40:17.682Z,1018.16
2018-12-08T07:41:17.669Z,1018.1
2018-12-08T07:42:17.660Z,1018.12
2018-12-08T07:43:17.646Z,1018.12
2018-12-08T07:44:17.633Z,1017.98
2018-12-08T07:45:17.620Z,1017.93
2018-12-08T07:46:17.608Z,1017.85
2018-12-08T07:47:17.596Z,1017.76
2018-12-08T07:48:17.585Z,1017.74
2018-12-08T07:49:17.573Z,1017.72
2018-12-08T07:50:17.558Z,1017.59
2018-12-08T07:51:17.547Z,1017.62
2018-12-08T07:52:17.535Z,1017.55
2018-12-08T07:53:17.522Z,1017.52
2018-12-08T07:54:17.512Z,1017.52
2018-12-08T07:55:17.499Z,1017.54
2018-12-08T07:56:17.489Z,1017.5
2018-12-08T07:57:17.476Z,1017.48
2018-12-08T07:58:17.463Z,1017.49
2018-12-08T07:59:17.451Z,1017.46
2018-12-08T08:00:17.440Z,1017.51
2018-12-08T08:01:17.432Z,1017.49
2018-12-08T08:02:17.417Z,1017.45
2018-12-08T08:03:17.403Z,1017.38
2018-12-08T08:04:17.391Z,1017.44
2018-12-08T08:05:17.381Z,1017.43
2018-12-08T08:06:17.370Z,1017.41
2018-12-08T08:07:17.358Z,1017.43
2018-12-08T08:08:17.346Z,1017.43
2018-12-08T08:09:17.335Z,1017.41
2018-12-08T08:10:17.322Z,1017.4
2018-12-08T08:11:17.310Z,1017.29
2018-12-08T08:12:17.299Z,1017.28
2018-12-08T08:13:17.287Z,1017.12
2018-12-08T08:14:17.279Z,1017.13
2018-12-08T08:15:17.263Z,1017.11
2018-12-08T08:16:17.252Z,1017.12
2018-12-08T08:17:17.242Z,1017.01
2018-12-08T08:18:17.230Z,1017
2018-12-08T08:19:17.219Z,1016.92
2018-12-08T08:20:17.207Z,1016.92
2018-12-08T08:21:17.196Z,1016.84
2018-12-08T08:22:17.184Z,1016.83
2018-12-08T08:23:17.175Z,1016.78
2018-12-08T08:24:17.161Z,1016.62
2018-12-08T08:25:17.154Z,1016.65
2018-12-08T08:26:17.139Z,1016.54
2018-12-08T08:27:17.127Z,1016.54
2018-12-08T08:28:17.121Z,1016.48
2018-12-08T08:29:17.103Z,1016.43
2018-12-08T08:30:17.094Z,1016.22
2018-12-08T08:31:17.083Z,1016.13
2018-12-08T08:32:17.073Z,1016.16
2018-12-08T08:33:17.061Z,1016.06
2018-12-08T08:34:17.049Z,1015.88
2018-12-08T08:35:17.039Z,1015.82
2018-12-08T08:36:17.029Z,1015.73
2018-12-08T08:37:17.018Z,1015.77
2018-12-08T08:38:17.009Z,1015.74
2018-12-08T08:39:16.997Z,1015.73
2018-12-08T08:40:16.985Z,1015.86
2018-12-08T08:41:16.975Z,1015.91
2018-12-08T08:42:16.967Z,1015.95
2018-12-08T08:43:16.956Z,1015.98
2018-12-08T08:44:16.946Z,1016.07
2018-12-08T08:45:16.936Z,1016.22
2018-12-08T08:46:16.925Z,1016.2
2018-12-08T08:47:16.913Z,1016.29
2018-12-08T08:48:16.905Z,1016.34
2018-12-08T08:49:16.895Z,1016.37
2018-12-08T08:50:16.885Z,1016.39
2018-12-08T08:51:16.877Z,1016.37
2018-12-08T08:52:16.864Z,1016.39
2018-12-08T08:53:16.853Z,1016.25
2018-12-08T08:54:16.840Z,1016.32
2018-12-08T08:55:16.830Z,1016.31
2018-12-08T08:56:16.821Z,1016.31
2018-12-08T08:57:17.062Z,1016.31
2018-12-08T08:58:16.801Z,1016.22
2018-12-08T08:59:16.790Z,1016.12
2018-12-08T09:00:16.779Z,1015.97
2018-12-08T09:01:16.780Z,1015.9
2018-12-08T09:02:16.759Z,1015.84
2018-12-08T09:03:16.749Z,1015.67
2018-12-08T09:04:16.739Z,1015.75
2018-12-08T09:05:16.728Z,1015.75
2018-12-08T09:06:16.717Z,1015.71
2018-12-08T09:07:16.706Z,1015.55
2018-12-08T09:08:16.698Z,1015.53
2018-12-08T09:09:16.685Z,1015.52
2018-12-08T09:10:16.676Z,1015.51
2018-12-08T09:11:16.666Z,1015.49
2018-12-08T09:12:16.657Z,1015.53
2018-12-08T09:13:16.646Z,1015.51
2018-12-08T09:14:16.636Z,1015.55
2018-12-08T09:15:16.625Z,1015.54
2018-12-08T09:16:16.615Z,1015.59
2018-12-08T09:17:16.606Z,1015.73
2018-12-08T09:18:16.595Z,1015.72
2018-12-08T09:19:16.585Z,1015.69
2018-12-08T09:20:16.574Z,1015.78
2018-12-08T09:21:16.566Z,1015.66
2018-12-08T09:22:16.557Z,1015.77
2018-12-08T09:23:16.547Z,1015.84
2018-12-08T09:24:16.541Z,1015.79
2018-12-08T09:25:16.526Z,1015.83
2018-12-08T09:26:16.516Z,1015.79
2018-12-08T09:27:16.506Z,1015.82
2018-12-08T09:28:16.496Z,1015.81
2018-12-08T09:29:16.486Z,1015.73
2018-12-08T09:30:16.478Z,1015.78
2018-12-08T09:31:16.464Z,1015.77
2018-12-08T09:32:16.454Z,1015.68
2018-12-08T09:33:16.446Z,1015.65
2018-12-08T09:34:16.436Z,1015.61
2018-12-08T09:35:16.426Z,1015.49
2018-12-08T09:36:16.415Z,1015.41
2018-12-08T09:37:16.406Z,1015.34
2018-12-08T09:38:16.397Z,1015.37
2018-12-08T09:39:16.385Z,1015.33
2018-12-08T09:40:16.380Z,1015.31
2018-12-08T09:41:16.364Z,1015.26
2018-12-08T09:42:16.357Z,1015.25
2018-12-08T09:43:16.345Z,1015.18
2018-12-08T09:44:16.334Z,1015.16
2018-12-08T09:45:16.325Z,1015.21
2018-12-08T09:46:16.316Z,1015.09
2018-12-08T09:47:16.306Z,1015.2
2018-12-08T09:48:16.296Z,1015.25
2018-12-08T09:49:16.286Z,1015.17
2018-12-08T09:50:16.276Z,1015.13
2018-12-08T09:51:16.267Z,1015.09
2018-12-08T09:52:16.257Z,1015.05
2018-12-08T09:53:16.246Z,1015.04
2018-12-08T09:54:16.239Z,1014.98
2018-12-08T09:55:16.228Z,1014.97
2018-12-08T09:56:16.218Z,1015.02
2018-12-08T09:57:16.207Z,1014.97
2018-12-08T09:58:16.203Z,1015.07
2018-12-08T09:59:16.190Z,1014.93
2018-12-08T10:00:16.179Z,1014.88
2018-12-08T10:01:16.170Z,1014.85
2018-12-08T10:02:16.159Z,1014.68
2018-12-08T10:03:16.150Z,1014.67
2018-12-08T10:04:16.212Z,1014.61
2018-12-08T10:05:16.130Z,1014.55
2018-12-08T10:06:16.122Z,1014.61
2018-12-08T10:07:16.113Z,1014.51
2018-12-08T10:08:16.103Z,1014.54
2018-12-08T10:09:16.094Z,1014.65
2018-12-08T10:10:16.085Z,1014.77
2018-12-08T10:11:16.074Z,1014.79
2018-12-08T10:12:16.065Z,1014.78
2018-12-08T10:13:16.056Z,1014.89
2018-12-08T10:14:16.046Z,1014.83
2018-12-08T10:15:16.035Z,1014.79
2018-12-08T10:16:16.031Z,1014.9
2018-12-08T10:17:16.017Z,1014.91
2018-12-08T10:18:16.009Z,1014.9
2018-12-08T10:19:15.999Z,1014.86
2018-12-08T10:20:15.990Z,1014.81
2018-12-08T10:21:15.981Z,1014.77
2018-12-08T10:22:15.973Z,1014.83
2018-12-08T10:23:16.013Z,1014.72
2018-12-08T10:24:15.951Z,1014.78
2018-12-08T10:25:15.942Z,1014.74
2018-12-08T10:26:15.930Z,1014.83
2018-12-08T10:27:15.921Z,1014.77
2018-12-08T10:28:15.913Z,1014.71
2018-12-08T10:29:15.901Z,1014.62
2018-12-08T10:30:15.893Z,1014.61
2018-12-08T10:31:15.883Z,1014.58
2018-12-08T10:32:15.876Z,1014.48
2018-12-08T10:33:15.863Z,1014.56
2018-12-08T10:34:15.856Z,1014.45
2018-12-08T10:35:15.844Z,1014.45
2018-12-08T10:36:15.834Z,1014.3
2018-12-08T10:37:15.823Z,1014.33
2018-12-08T10:38:15.818Z,1014.38
2018-12-08T10:39:15.806Z,1014.34
2018-12-08T10:40:15.795Z,1014.35
2018-12-08T10:41:15.785Z,1014.23
2018-12-08T10:42:15.775Z,1014.12
2018-12-08T10:43:15.766Z,1014.18
2018-12-08T10:44:15.755Z,1014.15
2018-12-08T10:45:15.746Z,1014.11
2018-12-08T10:46:15.738Z,1014.06
2018-12-08T10:47:15.728Z,1013.95
2018-12-08T10:48:15.716Z,1013.95
2018-12-08T10:49:15.707Z,1013.71
2018-12-08T10:50:15.699Z,1013.85
2018-12-08T10:51:15.688Z,1013.69
2018-12-08T10:52:15.680Z,1013.7
2018-12-08T10:53:15.671Z,1013.57
2018-12-08T10:54:15.660Z,1013.49
2018-12-08T10:55:15.651Z,1013.45
2018-12-08T10:56:15.643Z,1013.54
2018-12-08T10:57:15.632Z,1013.47
2018-12-08T10:58:15.625Z,1013.52
2018-12-08T10:59:15.616Z,1013.54
2018-12-08T11:00:15.705Z,1013.52
2018-12-08T11:01:15.595Z,1013.47
2018-12-08T11:02:15.587Z,1013.4
2018-12-08T11:03:15.578Z,1013.51
2018-12-08T11:04:15.569Z,1013.46
2018-12-08T11:05:15.560Z,1013.35
2018-12-08T11:06:16.966Z,1013.16
2018-12-08T11:07:15.627Z,1013.23
2018-12-08T11:08:15.531Z,1013.37
2018-12-08T11:09:15.523Z,1013.29
2018-12-08T11:10:15.514Z,1013.36
2018-12-08T11:11:15.505Z,1013.39
2018-12-08T11:12:15.501Z,1013.31
2018-12-08T11:13:15.485Z,1013.36
2018-12-08T11:14:15.478Z,1013.25
2018-12-08T11:15:15.469Z,1013.51
2018-12-08T11:16:15.460Z,1013.44
2018-12-08T11:17:15.450Z,1013.55
2018-12-08T11:18:15.440Z,1013.51
2018-12-08T11:19:15.432Z,1013.66
2018-12-08T11:20:15.424Z,1013.72
2018-12-08T11:21:15.413Z,1013.68
2018-12-08T11:22:15.405Z,1013.66
2018-12-08T11:23:15.396Z,1013.7
2018-12-08T11:24:15.386Z,1013.77
2018-12-08T11:25:15.379Z,1013.74
2018-12-08T11:26:15.367Z,1013.76
2018-12-08T11:27:15.358Z,1013.74
2018-12-08T11:28:15.349Z,1013.75
2018-12-08T11:29:15.340Z,1013.67
2018-12-08T11:30:15.332Z,1013.66
2018-12-08T11:31:15.322Z,1013.56
2018-12-08T11:32:15.315Z,1013.58
2018-12-08T11:33:15.302Z,1013.51
2018-12-08T11:34:15.294Z,1013.46
2018-12-08T11:35:15.283Z,1013.4
2018-12-08T11:36:15.276Z,1013.35
2018-12-08T11:37:15.264Z,1013.27
2018-12-08T11:38:15.256Z,1013.32
2018-12-08T11:39:15.245Z,1013.25
2018-12-08T11:40:15.239Z,1013.16
2018-12-08T11:41:15.227Z,1013.15
2018-12-08T11:42:15.219Z,1013.11
2018-12-08T11:43:15.210Z,1013.03
2018-12-08T11:44:15.200Z,1012.97
2018-12-08T11:45:15.190Z,1012.96
2018-12-08T11:46:15.181Z,1012.92
2018-12-08T11:47:15.171Z,1013.02
2018-12-08T11:48:15.161Z,1012.94
2018-12-08T11:49:15.155Z,1013.04
2018-12-08T11:50:15.144Z,1013.03
2018-12-08T11:51:15.136Z,1013.01
2018-12-08T11:52:15.126Z,1013.08
2018-12-08T11:53:15.117Z,1013.02
2018-12-08T11:54:15.110Z,1013
2018-12-08T11:55:15.100Z,1012.99
2018-12-08T11:56:15.091Z,1012.93
2018-12-08T11:57:15.083Z,1012.78
2018-12-08T11:58:15.072Z,1012.71
2018-12-08T11:59:15.063Z,1012.78
2018-12-08T12:00:15.055Z,1012.66
2018-12-08T12:01:15.045Z,1012.65
2018-12-08T12:02:16.563Z,1012.61
2018-12-08T12:03:15.028Z,1012.61
2018-12-08T12:04:15.019Z,1012.66
2018-12-08T12:05:15.009Z,1012.62
2018-12-08T12:06:15.002Z,1012.41
2018-12-08T12:07:14.993Z,1012.57
2018-12-08T12:08:14.984Z,1012.56